sensor_id;sensor_type;location;lat;lon;timestamp;pressure;altitude;pressure_sealevel;temperature;humidity
6413;BME280;3239;48.714;9.472;2023-05-12T00:00:03;98518.97;;;10.46;100.00
6413;BME280;3239;48.714;9.472;2023-05-12T00:02:30;98522.16;;;10.50;100.00
6413;BME280;3239;48.714;9.472;2023-05-12T00:04:56;98517.72;;;10.47;100.00
6413;BME280;3239;48.714;9.472;2023-05-12T00:07:22;98519.44;;;10.50;100.00
6413;BME280;3239;48.714;9.472;2023-05-12T00:09:47;98513.94;;;10.50;100.00
6413;BME280;3239;48.714;9.472;2023-05-12T00:12:13;98517.94;;;10.49;100.00
6413;BME280;3239;48.714;9.472;2023-05-12T00:14:39;98517.44;;;10.51;100.00
6413;BME280;3239;48.714;9.472;2023-05-12T00:17:05;98515.94;;;10.50;100.00
6413;BME280;3239;48.714;9.472;2023-05-12T00:19:34;98511.72;;;10.49;100.00
6413;BME280;3239;48.714;9.472;2023-05-12T00:22:01;98511.00;;;10.48;100.00
6413;BME280;3239;48.714;9.472;2023-05-12T00:24:27;98517.72;;;10.47;100.00
6413;BME280;3239;48.714;9.472;2023-05-12T00:26:55;98511.72;;;10.49;100.00
6413;BME280;3239;48.714;9.472;2023-05-12T00:29:20;98508.75;;;10.47;100.00
6413;BME280;3239;48.714;9.472;2023-05-12T00:31:46;98511.97;;;10.51;100.00
6413;BME280;3239;48.714;9.472;2023-05-12T00:34:12;98504.25;;;10.49;100.00
6413;BME280;3239;48.714;9.472;2023-05-12T00:36:38;98507.97;;;10.52;100.00
6413;BME280;3239;48.714;9.472;2023-05-12T00:39:04;98495.53;;;10.51;100.00
6413;BME280;3239;48.714;9.472;2023-05-12T00:41:30;98507.03;;;10.44;100.00
6413;BME280;3239;48.714;9.472;2023-05-12T00:43:56;98499.78;;;10.46;100.00
6413;BME280;3239;48.714;9.472;2023-05-12T00:46:21;98497.34;;;10.43;100.00
6413;BME280;3239;48.714;9.472;2023-05-12T00:48:48;98496.84;;;10.44;100.00
6413;BME280;3239;48.714;9.472;2023-05-12T00:51:15;98496.88;;;10.39;100.00
6413;BME280;3239;48.714;9.472;2023-05-12T00:53:41;98499.88;;;10.41;100.00
6413;BME280;3239;48.714;9.472;2023-05-12T00:56:08;98503.56;;;10.43;100.00
6413;BME280;3239;48.714;9.472;2023-05-12T00:58:35;98494.91;;;10.39;100.00
6413;BME280;3239;48.714;9.472;2023-05-12T01:01:00;98498.38;;;10.40;100.00
6413;BME280;3239;48.714;9.472;2023-05-12T01:03:26;98495.88;;;10.42;100.00
6413;BME280;3239;48.714;9.472;2023-05-12T01:06:11;98489.88;;;10.43;100.00
6413;BME280;3239;48.714;9.472;2023-05-12T01:08:40;98497.63;;;10.39;100.00
6413;BME280;3239;48.714;9.472;2023-05-12T01:11:06;98497.84;;;10.41;100.00
6413;BME280;3239;48.714;9.472;2023-05-12T01:13:32;98504.31;;;10.44;100.00
6413;BME280;3239;48.714;9.472;2023-05-12T01:15:59;98497.56;;;10.45;100.00
6413;BME280;3239;48.714;9.472;2023-05-12T01:18:27;98500.53;;;10.47;100.00
6413;BME280;3239;48.714;9.472;2023-05-12T01:20:54;98499.88;;;10.41;100.00
6413;BME280;3239;48.714;9.472;2023-05-12T01:23:26;98499.19;;;10.35;100.00
6413;BME280;3239;48.714;9.472;2023-05-12T01:26:08;98496.50;;;10.29;100.00
6413;BME280;3239;48.714;9.472;2023-05-12T01:28:35;98490.84;;;10.22;100.00
6413;BME280;3239;48.714;9.472;2023-05-12T01:31:03;98496.09;;;10.20;100.00
6413;BME280;3239;48.714;9.472;2023-05-12T01:33:31;98491.81;;;10.24;100.00
6413;BME280;3239;48.714;9.472;2023-05-12T01:35:57;98495.22;;;10.30;100.00
6413;BME280;3239;48.714;9.472;2023-05-12T01:38:23;98509.69;;;10.31;100.00
6413;BME280;3239;48.714;9.472;2023-05-12T01:40:49;98504.22;;;10.31;100.00
6413;BME280;3239;48.714;9.472;2023-05-12T01:43:14;98498.22;;;10.32;100.00
6413;BME280;3239;48.714;9.472;2023-05-12T01:45:40;98508.72;;;10.28;100.00
6413;BME280;3239;48.714;9.472;2023-05-12T01:48:06;98513.03;;;10.18;100.00
6413;BME280;3239;48.714;9.472;2023-05-12T01:50:32;98512.53;;;10.20;100.00
6413;BME280;3239;48.714;9.472;2023-05-12T01:52:58;98512.06;;;10.16;100.00
6413;BME280;3239;48.714;9.472;2023-05-12T01:55:23;98517.75;;;10.18;100.00
6413;BME280;3239;48.714;9.472;2023-05-12T01:57:49;98517.25;;;10.19;100.00
6413;BME280;3239;48.714;9.472;2023-05-12T02:00:15;98515.19;;;10.25;100.00
6413;BME280;3239;48.714;9.472;2023-05-12T02:02:41;98505.00;;;10.26;100.00
6413;BME280;3239;48.714;9.472;2023-05-12T02:05:10;98516.69;;;10.26;100.00
6413;BME280;3239;48.714;9.472;2023-05-12T02:07:36;98523.03;;;10.16;100.00
6413;BME280;3239;48.714;9.472;2023-05-12T02:10:01;98517.03;;;10.17;100.00
6413;BME280;3239;48.714;9.472;2023-05-12T02:12:27;98521.47;;;10.20;100.00
6413;BME280;3239;48.714;9.472;2023-05-12T02:14:53;98523.72;;;10.22;100.00
6413;BME280;3239;48.714;9.472;2023-05-12T02:17:18;98528.97;;;10.20;100.00
6413;BME280;3239;48.714;9.472;2023-05-12T02:19:44;98529.66;;;10.26;100.00
6413;BME280;3239;48.714;9.472;2023-05-12T02:22:10;98537.34;;;10.27;100.00
6413;BME280;3239;48.714;9.472;2023-05-12T02:24:36;98542.84;;;10.27;100.00
6413;BME280;3239;48.714;9.472;2023-05-12T02:27:02;98541.56;;;10.28;100.00
6413;BME280;3239;48.714;9.472;2023-05-12T02:29:27;98538.44;;;10.19;100.00
6413;BME280;3239;48.714;9.472;2023-05-12T02:31:53;98532.25;;;10.13;100.00
6413;BME280;3239;48.714;9.472;2023-05-12T02:34:19;98539.72;;;10.12;100.00
6413;BME280;3239;48.714;9.472;2023-05-12T02:36:44;98534.47;;;10.14;100.00
6413;BME280;3239;48.714;9.472;2023-05-12T02:39:10;98540.47;;;10.13;100.00
6413;BME280;3239;48.714;9.472;2023-05-12T02:41:36;98539.81;;;10.01;100.00
6413;BME280;3239;48.714;9.472;2023-05-12T02:44:01;98527.59;;;10.02;100.00
6413;BME280;3239;48.714;9.472;2023-05-12T02:46:27;98544.31;;;9.99;100.00
6413;BME280;3239;48.714;9.472;2023-05-12T02:48:53;98533.16;;;9.91;100.00
6413;BME280;3239;48.714;9.472;2023-05-12T02:51:19;98539.44;;;9.86;100.00
6413;BME280;3239;48.714;9.472;2023-05-12T02:53:44;98540.16;;;9.87;100.00
6413;BME280;3239;48.714;9.472;2023-05-12T02:56:10;98545.13;;;9.88;100.00
6413;BME280;3239;48.714;9.472;2023-05-12T02:58:36;98547.34;;;9.90;100.00
6413;BME280;3239;48.714;9.472;2023-05-12T03:01:02;98554.78;;;9.95;100.00
6413;BME280;3239;48.714;9.472;2023-05-12T03:03:28;98554.50;;;9.98;100.00
6413;BME280;3239;48.714;9.472;2023-05-12T03:05:54;98552.22;;;10.02;100.00
6413;BME280;3239;48.714;9.472;2023-05-12T03:08:20;98554.97;;;10.02;100.00
6413;BME280;3239;48.714;9.472;2023-05-12T03:10:46;98557.72;;;10.02;100.00
6413;BME280;3239;48.714;9.472;2023-05-12T03:13:11;98559.25;;;9.98;100.00
6413;BME280;3239;48.714;9.472;2023-05-12T03:15:37;98559.78;;;9.91;100.00
6413;BME280;3239;48.714;9.472;2023-05-12T03:18:03;98559.56;;;9.89;100.00
6413;BME280;3239;48.714;9.472;2023-05-12T03:20:28;98555.63;;;9.84;100.00
6413;BME280;3239;48.714;9.472;2023-05-12T03:22:54;98554.66;;;9.82;100.00
6413;BME280;3239;48.714;9.472;2023-05-12T03:25:20;98563.31;;;9.86;100.00
6413;BME280;3239;48.714;9.472;2023-05-12T03:27:46;98572.00;;;9.90;100.00
6413;BME280;3239;48.714;9.472;2023-05-12T03:30:12;98569.94;;;9.96;100.00
6413;BME280;3239;48.714;9.472;2023-05-12T03:32:38;98576.19;;;9.96;100.00
6413;BME280;3239;48.714;9.472;2023-05-12T03:35:05;98581.16;;;9.98;100.00
6413;BME280;3239;48.714;9.472;2023-05-12T03:37:32;98576.66;;;10.00;100.00
6413;BME280;3239;48.714;9.472;2023-05-12T03:39:57;98588.06;;;10.04;100.00
6413;BME280;3239;48.714;9.472;2023-05-12T03:42:23;98573.13;;;10.05;100.00
6413;BME280;3239;48.714;9.472;2023-05-12T03:44:50;98582.09;;;10.06;100.00
6413;BME280;3239;48.714;9.472;2023-05-12T03:47:16;98580.84;;;10.07;100.00
6413;BME280;3239;48.714;9.472;2023-05-12T03:49:42;98569.88;;;10.07;100.00
6413;BME280;3239;48.714;9.472;2023-05-12T03:52:08;98575.81;;;10.11;100.00
6413;BME280;3239;48.714;9.472;2023-05-12T03:54:34;98573.09;;;10.11;100.00
6413;BME280;3239;48.714;9.472;2023-05-12T03:57:00;98567.63;;;10.11;100.00
6413;BME280;3239;48.714;9.472;2023-05-12T03:59:29;98578.56;;;10.11;100.00
6413;BME280;3239;48.714;9.472;2023-05-12T04:01:55;98569.16;;;10.06;100.00
6413;BME280;3239;48.714;9.472;2023-05-12T04:04:21;98579.06;;;10.09;100.00
6413;BME280;3239;48.714;9.472;2023-05-12T04:06:47;98577.31;;;10.12;100.00
6413;BME280;3239;48.714;9.472;2023-05-12T04:09:12;98566.16;;;10.04;100.00
6413;BME280;3239;48.714;9.472;2023-05-12T04:11:38;98563.44;;;10.04;100.00
6413;BME280;3239;48.714;9.472;2023-05-12T04:14:04;98571.16;;;10.06;100.00
6413;BME280;3239;48.714;9.472;2023-05-12T04:16:30;98574.16;;;9.97;100.00
6413;BME280;3239;48.714;9.472;2023-05-12T04:18:56;98574.38;;;10.04;100.00
6413;BME280;3239;48.714;9.472;2023-05-12T04:21:22;98570.44;;;9.94;100.00
6413;BME280;3239;48.714;9.472;2023-05-12T04:23:50;98578.72;;;9.89;100.00
6413;BME280;3239;48.714;9.472;2023-05-12T04:26:17;98567.59;;;9.81;100.00
6413;BME280;3239;48.714;9.472;2023-05-12T04:28:43;98578.03;;;9.83;100.00
6413;BME280;3239;48.714;9.472;2023-05-12T04:31:08;98581.22;;;9.87;100.00
6413;BME280;3239;48.714;9.472;2023-05-12T04:33:34;98593.84;;;9.95;100.00
6413;BME280;3239;48.714;9.472;2023-05-12T04:36:00;98592.53;;;10.02;100.00
6413;BME280;3239;48.714;9.472;2023-05-12T04:38:26;98600.75;;;10.07;100.00
6413;BME280;3239;48.714;9.472;2023-05-12T04:40:57;98602.41;;;10.16;100.00
6413;BME280;3239;48.714;9.472;2023-05-12T04:43:24;98599.91;;;10.18;100.00
6413;BME280;3239;48.714;9.472;2023-05-12T04:45:50;98597.94;;;10.13;100.00
6413;BME280;3239;48.714;9.472;2023-05-12T04:48:18;98599.97;;;10.12;100.00
6413;BME280;3239;48.714;9.472;2023-05-12T04:50:44;98596.25;;;10.10;100.00
6413;BME280;3239;48.714;9.472;2023-05-12T04:53:10;98607.75;;;9.97;100.00
6413;BME280;3239;48.714;9.472;2023-05-12T04:55:37;98608.75;;;10.00;100.00
6413;BME280;3239;48.714;9.472;2023-05-12T04:58:03;98605.78;;;9.98;100.00
6413;BME280;3239;48.714;9.472;2023-05-12T05:00:28;98612.72;;;10.04;100.00
6413;BME280;3239;48.714;9.472;2023-05-12T05:02:54;98620.09;;;10.15;100.00
6413;BME280;3239;48.714;9.472;2023-05-12T05:05:20;98624.03;;;10.19;100.00
6413;BME280;3239;48.714;9.472;2023-05-12T05:07:46;98622.28;;;10.22;100.00
6413;BME280;3239;48.714;9.472;2023-05-12T05:10:11;98630.75;;;10.24;100.00
6413;BME280;3239;48.714;9.472;2023-05-12T05:12:37;98630.97;;;10.26;100.00
6413;BME280;3239;48.714;9.472;2023-05-12T05:15:03;98628.69;;;10.30;100.00
6413;BME280;3239;48.714;9.472;2023-05-12T05:17:29;98631.63;;;10.37;100.00
6413;BME280;3239;48.714;9.472;2023-05-12T05:19:55;98624.91;;;10.38;100.00
6413;BME280;3239;48.714;9.472;2023-05-12T05:22:21;98639.19;;;10.55;100.00
6413;BME280;3239;48.714;9.472;2023-05-12T05:24:46;98629.94;;;10.58;100.00
6413;BME280;3239;48.714;9.472;2023-05-12T05:27:12;98638.06;;;10.69;100.00
6413;BME280;3239;48.714;9.472;2023-05-12T05:29:38;98633.53;;;10.72;100.00
6413;BME280;3239;48.714;9.472;2023-05-12T05:32:04;98632.22;;;10.78;100.00
6413;BME280;3239;48.714;9.472;2023-05-12T05:34:30;98630.81;;;10.72;100.00
6413;BME280;3239;48.714;9.472;2023-05-12T05:36:55;98629.13;;;10.63;100.00
6413;BME280;3239;48.714;9.472;2023-05-12T05:39:21;98631.31;;;10.70;100.00
6413;BME280;3239;48.714;9.472;2023-05-12T05:41:47;98621.94;;;10.84;100.00
6413;BME280;3239;48.714;9.472;2023-05-12T05:44:13;98620.75;;;10.80;100.00
6413;BME280;3239;48.714;9.472;2023-05-12T05:46:38;98612.06;;;11.00;100.00
6413;BME280;3239;48.714;9.472;2023-05-12T05:49:04;98615.53;;;11.00;100.00
6413;BME280;3239;48.714;9.472;2023-05-12T05:51:30;98614.34;;;10.96;100.00
6413;BME280;3239;48.714;9.472;2023-05-12T05:53:56;98606.41;;;10.92;100.00
6413;BME280;3239;48.714;9.472;2023-05-12T05:56:21;98603.47;;;11.09;100.00
6413;BME280;3239;48.714;9.472;2023-05-12T05:58:47;98603.56;;;11.22;100.00
6413;BME280;3239;48.714;9.472;2023-05-12T06:01:13;98602.28;;;11.23;100.00
6413;BME280;3239;48.714;9.472;2023-05-12T06:03:39;98586.94;;;11.14;100.00
6413;BME280;3239;48.714;9.472;2023-05-12T06:06:05;98576.06;;;11.09;100.00
6413;BME280;3239;48.714;9.472;2023-05-12T06:08:31;98583.34;;;11.25;100.00
6413;BME280;3239;48.714;9.472;2023-05-12T06:10:57;98564.94;;;11.20;100.00
6413;BME280;3239;48.714;9.472;2023-05-12T06:13:23;98562.88;;;11.07;100.00
6413;BME280;3239;48.714;9.472;2023-05-12T06:15:49;98553.72;;;10.99;100.00
6413;BME280;3239;48.714;9.472;2023-05-12T06:18:15;98553.06;;;10.93;100.00
6413;BME280;3239;48.714;9.472;2023-05-12T06:20:41;98552.06;;;11.15;100.00
6413;BME280;3239;48.714;9.472;2023-05-12T06:23:07;98546.78;;;11.17;100.00
6413;BME280;3239;48.714;9.472;2023-05-12T06:25:32;98537.53;;;11.20;100.00
6413;BME280;3239;48.714;9.472;2023-05-12T06:27:58;98534.84;;;11.14;100.00
6413;BME280;3239;48.714;9.472;2023-05-12T06:30:24;98524.19;;;11.11;100.00
6413;BME280;3239;48.714;9.472;2023-05-12T06:32:50;98523.44;;;11.10;100.00
6413;BME280;3239;48.714;9.472;2023-05-12T06:35:15;98509.44;;;11.14;100.00
6413;BME280;3239;48.714;9.472;2023-05-12T06:37:41;98520.41;;;11.32;100.00
6413;BME280;3239;48.714;9.472;2023-05-12T06:40:09;98510.91;;;11.15;100.00
6413;BME280;3239;48.714;9.472;2023-05-12T06:42:35;98509.94;;;11.12;100.00
6413;BME280;3239;48.714;9.472;2023-05-12T06:45:00;98508.09;;;11.20;100.00
6413;BME280;3239;48.714;9.472;2023-05-12T06:47:26;98494.59;;;11.41;100.00
6413;BME280;3239;48.714;9.472;2023-05-12T06:49:52;98495.06;;;11.58;100.00
6413;BME280;3239;48.714;9.472;2023-05-12T06:52:18;98500.66;;;11.84;100.00
6413;BME280;3239;48.714;9.472;2023-05-12T06:54:45;98489.19;;;11.98;100.00
6413;BME280;3239;48.714;9.472;2023-05-12T06:57:10;98475.84;;;11.76;100.00
6413;BME280;3239;48.714;9.472;2023-05-12T06:59:36;98467.03;;;11.65;100.00
6413;BME280;3239;48.714;9.472;2023-05-12T07:02:02;98460.66;;;11.88;100.00
6413;BME280;3239;48.714;9.472;2023-05-12T07:04:27;98443.56;;;12.34;100.00
6413;BME280;3239;48.714;9.472;2023-05-12T07:06:54;98422.75;;;12.39;100.00
6413;BME280;3239;48.714;9.472;2023-05-12T07:09:21;98405.50;;;12.64;100.00
6413;BME280;3239;48.714;9.472;2023-05-12T07:11:47;98396.97;;;12.88;100.00
6413;BME280;3239;48.714;9.472;2023-05-12T07:14:13;98370.47;;;12.78;100.00
6413;BME280;3239;48.714;9.472;2023-05-12T07:16:38;98349.44;;;12.67;100.00
6413;BME280;3239;48.714;9.472;2023-05-12T07:19:04;98330.28;;;12.75;100.00
6413;BME280;3239;48.714;9.472;2023-05-12T07:21:31;98313.06;;;13.15;100.00
6413;BME280;3239;48.714;9.472;2023-05-12T07:23:56;98282.94;;;13.30;100.00
6413;BME280;3239;48.714;9.472;2023-05-12T07:26:22;98266.28;;;13.99;100.00
6413;BME280;3239;48.714;9.472;2023-05-12T07:28:49;98226.28;;;14.13;100.00
6413;BME280;3239;48.714;9.472;2023-05-12T07:31:14;98182.44;;;14.30;100.00
6413;BME280;3239;48.714;9.472;2023-05-12T07:33:40;98149.97;;;14.66;100.00
6413;BME280;3239;48.714;9.472;2023-05-12T07:36:07;98134.50;;;14.33;100.00
6413;BME280;3239;48.714;9.472;2023-05-12T07:38:34;98120.78;;;13.75;100.00
6413;BME280;3239;48.714;9.472;2023-05-12T07:41:00;98126.97;;;14.26;100.00
6413;BME280;3239;48.714;9.472;2023-05-12T07:43:26;98123.50;;;14.33;100.00
6413;BME280;3239;48.714;9.472;2023-05-12T07:45:51;98119.22;;;14.17;100.00
6413;BME280;3239;48.714;9.472;2023-05-12T07:48:19;98120.72;;;14.48;100.00
6413;BME280;3239;48.714;9.472;2023-05-12T07:50:44;98122.94;;;14.65;100.00
6413;BME280;3239;48.714;9.472;2023-05-12T07:53:10;98125.56;;;15.25;100.00
6413;BME280;3239;48.714;9.472;2023-05-12T07:55:36;98096.59;;;15.88;100.00
6413;BME280;3239;48.714;9.472;2023-05-12T07:58:02;98060.53;;;16.59;100.00
6413;BME280;3239;48.714;9.472;2023-05-12T08:00:27;98032.03;;;17.17;100.00
6413;BME280;3239;48.714;9.472;2023-05-12T08:02:54;98006.22;;;17.32;100.00
6413;BME280;3239;48.714;9.472;2023-05-12T08:05:20;98004.31;;;16.91;100.00
6413;BME280;3239;48.714;9.472;2023-05-12T08:07:46;98002.72;;;18.30;100.00
6413;BME280;3239;48.714;9.472;2023-05-12T08:10:12;97980.91;;;18.81;100.00
6413;BME280;3239;48.714;9.472;2023-05-12T08:12:39;97962.72;;;17.42;100.00
6413;BME280;3239;48.714;9.472;2023-05-12T08:15:06;97966.41;;;16.67;100.00
6413;BME280;3239;48.714;9.472;2023-05-12T08:17:32;97962.41;;;16.77;100.00
6413;BME280;3239;48.714;9.472;2023-05-12T08:19:58;97975.34;;;16.41;100.00
6413;BME280;3239;48.714;9.472;2023-05-12T08:22:23;97991.59;;;16.37;100.00
6413;BME280;3239;48.714;9.472;2023-05-12T08:24:49;98004.66;;;16.19;100.00
6413;BME280;3239;48.714;9.472;2023-05-12T08:27:15;97997.91;;;16.30;100.00
6413;BME280;3239;48.714;9.472;2023-05-12T08:29:40;97990.00;;;15.85;100.00
6413;BME280;3239;48.714;9.472;2023-05-12T08:32:06;97996.78;;;15.91;100.00
6413;BME280;3239;48.714;9.472;2023-05-12T08:34:32;97998.28;;;15.60;100.00
6413;BME280;3239;48.714;9.472;2023-05-12T08:36:58;98003.16;;;14.90;100.00
6413;BME280;3239;48.714;9.472;2023-05-12T08:39:24;98024.41;;;14.65;100.00
6413;BME280;3239;48.714;9.472;2023-05-12T08:42:29;98037.75;;;14.91;100.00
6413;BME280;3239;48.714;9.472;2023-05-12T08:44:55;98060.22;;;15.42;100.00
6413;BME280;3239;48.714;9.472;2023-05-12T08:47:22;98055.84;;;15.96;100.00
6413;BME280;3239;48.714;9.472;2023-05-12T08:49:59;98044.03;;;17.03;100.00
6413;BME280;3239;48.714;9.472;2023-05-12T08:52:28;98018.44;;;17.29;100.00
6413;BME280;3239;48.714;9.472;2023-05-12T08:54:54;98002.94;;;17.26;100.00
6413;BME280;3239;48.714;9.472;2023-05-12T08:57:22;97970.84;;;18.86;100.00
6413;BME280;3239;48.714;9.472;2023-05-12T08:59:48;97952.03;;;18.10;100.00
6413;BME280;3239;48.714;9.472;2023-05-12T09:02:14;97950.72;;;18.02;100.00
6413;BME280;3239;48.714;9.472;2023-05-12T09:04:41;97952.25;;;16.46;100.00
6413;BME280;3239;48.714;9.472;2023-05-12T09:07:08;97967.19;;;16.01;100.00
6413;BME280;3239;48.714;9.472;2023-05-12T09:09:35;97975.53;;;15.45;100.00
6413;BME280;3239;48.714;9.472;2023-05-12T09:12:02;97984.78;;;15.64;100.00
6413;BME280;3239;48.714;9.472;2023-05-12T09:14:33;97995.91;;;16.06;100.00
6413;BME280;3239;48.714;9.472;2023-05-12T09:17:04;97998.28;;;15.85;100.00
6413;BME280;3239;48.714;9.472;2023-05-12T09:19:29;97993.38;;;15.76;100.00
6413;BME280;3239;48.714;9.472;2023-05-12T09:21:57;98009.03;;;15.73;100.00
6413;BME280;3239;48.714;9.472;2023-05-12T09:24:37;98022.91;;;15.90;100.00
6413;BME280;3239;48.714;9.472;2023-05-12T09:27:04;98016.81;;;15.92;100.00
6413;BME280;3239;48.714;9.472;2023-05-12T09:29:31;98013.44;;;16.25;100.00
6413;BME280;3239;48.714;9.472;2023-05-12T09:32:02;98007.56;;;16.21;100.00
6413;BME280;3239;48.714;9.472;2023-05-12T09:34:33;98012.03;;;15.68;100.00
6413;BME280;3239;48.714;9.472;2023-05-12T09:37:06;98008.03;;;15.86;100.00
6413;BME280;3239;48.714;9.472;2023-05-12T09:39:32;98025.41;;;16.03;100.00
6413;BME280;3239;48.714;9.472;2023-05-12T09:41:58;98011.28;;;16.16;100.00
6413;BME280;3239;48.714;9.472;2023-05-12T09:44:25;98000.34;;;16.26;100.00
6413;BME280;3239;48.714;9.472;2023-05-12T09:46:53;97994.31;;;16.44;100.00
6413;BME280;3239;48.714;9.472;2023-05-12T09:49:22;97979.19;;;17.23;100.00
6413;BME280;3239;48.714;9.472;2023-05-12T09:51:57;97960.44;;;17.04;100.00
6413;BME280;3239;48.714;9.472;2023-05-12T09:54:31;97963.88;;;17.39;100.00
6413;BME280;3239;48.714;9.472;2023-05-12T09:57:03;97964.78;;;17.77;100.00
6413;BME280;3239;48.714;9.472;2023-05-12T09:59:35;97951.69;;;17.87;100.00
6413;BME280;3239;48.714;9.472;2023-05-12T10:02:05;97943.97;;;17.59;100.00
6413;BME280;3239;48.714;9.472;2023-05-12T10:04:51;97956.69;;;17.62;100.00
6413;BME280;3239;48.714;9.472;2023-05-12T10:07:21;97958.41;;;17.94;100.00
6413;BME280;3239;48.714;9.472;2023-05-12T10:09:50;97957.84;;;18.50;100.00
6413;BME280;3239;48.714;9.472;2023-05-12T10:12:18;97949.00;;;18.16;100.00
6413;BME280;3239;48.714;9.472;2023-05-12T10:14:44;97961.59;;;17.90;100.00
6413;BME280;3239;48.714;9.472;2023-05-12T10:17:10;97956.31;;;17.22;100.00
6413;BME280;3239;48.714;9.472;2023-05-12T10:19:37;97976.66;;;17.34;100.00
6413;BME280;3239;48.714;9.472;2023-05-12T10:22:04;97981.53;;;17.70;100.00
6413;BME280;3239;48.714;9.472;2023-05-12T10:24:34;97975.50;;;18.00;100.00
6413;BME280;3239;48.714;9.472;2023-05-12T10:27:04;97975.50;;;17.64;100.00
6413;BME280;3239;48.714;9.472;2023-05-12T10:29:31;97966.75;;;17.14;100.00
6413;BME280;3239;48.714;9.472;2023-05-12T10:32:00;97972.44;;;17.60;100.00
6413;BME280;3239;48.714;9.472;2023-05-12T10:34:32;97960.47;;;17.14;100.00
6413;BME280;3239;48.714;9.472;2023-05-12T10:36:59;97949.63;;;17.25;100.00
6413;BME280;3239;48.714;9.472;2023-05-12T10:39:30;97957.91;;;16.99;100.00
6413;BME280;3239;48.714;9.472;2023-05-12T10:42:08;97970.31;;;16.81;100.00
6413;BME280;3239;48.714;9.472;2023-05-12T10:44:35;97983.66;;;15.92;100.00
6413;BME280;3239;48.714;9.472;2023-05-12T10:47:01;97999.41;;;15.82;100.00
6413;BME280;3239;48.714;9.472;2023-05-12T10:49:40;98011.91;;;15.83;100.00
6413;BME280;3239;48.714;9.472;2023-05-12T10:52:06;98012.34;;;15.72;100.00
6413;BME280;3239;48.714;9.472;2023-05-12T10:54:42;98026.41;;;15.66;100.00
6413;BME280;3239;48.714;9.472;2023-05-12T10:57:14;98033.28;;;15.58;100.00
6413;BME280;3239;48.714;9.472;2023-05-12T11:00:06;98031.19;;;15.66;100.00
6413;BME280;3239;48.714;9.472;2023-05-12T11:02:48;98031.44;;;15.85;100.00
6413;BME280;3239;48.714;9.472;2023-05-12T11:05:15;98040.22;;;15.66;100.00
6413;BME280;3239;48.714;9.472;2023-05-12T11:07:48;98039.31;;;15.64;100.00
6413;BME280;3239;48.714;9.472;2023-05-12T11:10:15;98041.84;;;15.69;100.00
6413;BME280;3239;48.714;9.472;2023-05-12T11:12:42;98041.78;;;15.45;100.00
6413;BME280;3239;48.714;9.472;2023-05-12T11:15:09;98046.78;;;15.39;100.00
6413;BME280;3239;48.714;9.472;2023-05-12T11:17:39;98045.41;;;15.55;100.00
6413;BME280;3239;48.714;9.472;2023-05-12T11:20:06;98040.06;;;15.89;100.00
6413;BME280;3239;48.714;9.472;2023-05-12T11:22:34;98034.19;;;15.85;100.00
6413;BME280;3239;48.714;9.472;2023-05-12T11:25:09;98034.41;;;15.79;100.00
6413;BME280;3239;48.714;9.472;2023-05-12T11:27:35;98037.19;;;16.04;100.00
6413;BME280;3239;48.714;9.472;2023-05-12T11:30:07;98040.78;;;15.89;100.00
6413;BME280;3239;48.714;9.472;2023-05-12T11:32:33;98044.44;;;15.67;100.00
6413;BME280;3239;48.714;9.472;2023-05-12T11:35:17;98035.44;;;15.59;100.00
6413;BME280;3239;48.714;9.472;2023-05-12T11:37:45;98043.25;;;15.78;100.00
6413;BME280;3239;48.714;9.472;2023-05-12T11:40:21;98050.50;;;15.66;100.00
6413;BME280;3239;48.714;9.472;2023-05-12T11:42:49;98042.13;;;15.81;100.00
6413;BME280;3239;48.714;9.472;2023-05-12T11:45:28;98039.63;;;16.00;100.00
6413;BME280;3239;48.714;9.472;2023-05-12T11:48:11;98035.03;;;15.31;100.00
6413;BME280;3239;48.714;9.472;2023-05-12T11:50:42;98042.19;;;15.41;100.00
6413;BME280;3239;48.714;9.472;2023-05-12T11:53:14;98038.59;;;15.56;100.00
6413;BME280;3239;48.714;9.472;2023-05-12T11:55:53;98045.81;;;16.08;100.00
6413;BME280;3239;48.714;9.472;2023-05-12T11:58:22;98039.22;;;16.03;100.00
6413;BME280;3239;48.714;9.472;2023-05-12T12:00:50;98037.53;;;16.08;100.00
6413;BME280;3239;48.714;9.472;2023-05-12T12:03:16;98017.00;;;16.43;100.00
6413;BME280;3239;48.714;9.472;2023-05-12T12:05:44;98010.25;;;16.53;100.00
6413;BME280;3239;48.714;9.472;2023-05-12T12:08:13;98002.63;;;16.61;100.00
6413;BME280;3239;48.714;9.472;2023-05-12T12:10:44;98007.81;;;16.91;100.00
6413;BME280;3239;48.714;9.472;2023-05-12T12:13:10;98011.56;;;16.28;100.00
6413;BME280;3239;48.714;9.472;2023-05-12T12:15:36;98010.19;;;15.95;100.00
6413;BME280;3239;48.714;9.472;2023-05-12T12:18:02;98008.66;;;16.26;100.00
6413;BME280;3239;48.714;9.472;2023-05-12T12:20:28;98013.50;;;16.59;100.00
6413;BME280;3239;48.714;9.472;2023-05-12T12:22:54;98014.38;;;16.45;100.00
6413;BME280;3239;48.714;9.472;2023-05-12T12:25:20;98019.94;;;16.37;100.00
6413;BME280;3239;48.714;9.472;2023-05-12T12:27:47;98025.94;;;16.51;100.00
6413;BME280;3239;48.714;9.472;2023-05-12T12:30:14;98022.94;;;16.39;100.00
6413;BME280;3239;48.714;9.472;2023-05-12T12:32:42;98027.22;;;16.08;100.00
6413;BME280;3239;48.714;9.472;2023-05-12T12:35:08;98036.13;;;15.99;100.00
6413;BME280;3239;48.714;9.472;2023-05-12T12:37:34;98025.41;;;15.79;100.00
6413;BME280;3239;48.714;9.472;2023-05-12T12:40:00;98017.47;;;15.75;100.00
6413;BME280;3239;48.714;9.472;2023-05-12T12:42:33;98014.69;;;16.32;100.00
6413;BME280;3239;48.714;9.472;2023-05-12T12:45:02;98011.56;;;16.28;100.00
6413;BME280;3239;48.714;9.472;2023-05-12T12:47:27;98010.75;;;16.35;100.00
6413;BME280;3239;48.714;9.472;2023-05-12T12:49:53;98006.28;;;16.47;100.00
6413;BME280;3239;48.714;9.472;2023-05-12T12:52:19;98002.28;;;16.74;100.00
6413;BME280;3239;48.714;9.472;2023-05-12T12:54:45;97996.34;;;16.61;100.00
6413;BME280;3239;48.714;9.472;2023-05-12T12:57:10;98002.13;;;16.55;100.00
6413;BME280;3239;48.714;9.472;2023-05-12T12:59:36;98000.97;;;16.58;100.00
6413;BME280;3239;48.714;9.472;2023-05-12T13:02:02;97998.38;;;16.60;100.00
6413;BME280;3239;48.714;9.472;2023-05-12T13:04:27;98011.81;;;16.64;100.00
6413;BME280;3239;48.714;9.472;2023-05-12T13:06:53;98012.28;;;16.53;100.00
6413;BME280;3239;48.714;9.472;2023-05-12T13:09:19;98009.69;;;16.55;100.00
6413;BME280;3239;48.714;9.472;2023-05-12T13:11:46;98016.69;;;16.90;100.00